Airfield :
LOGIN :

Register | Disclaimer

   EN    FR    IT 

 










Legend :    VFR   Marginal VFR   IFR   Intensive IFR   Very Intensive IFR
Visi :
Ceiling :
>= 8 km
>= 3000ft
5 to 8 km
1000 to 3000 ft
1500m to 5 km
500 to 1000 ft
800 to 1500m
200 to 500 ft
< 800m
< 200 ft
Symbols :   Thunderstorms  Fog  Heavy snow  Heavy precipitations  Wind > 20 kt
SIGMETs :     Misc.  Thunderstorms  Icing  Turbulence  Mountain Waves  Volcanic Ashes







- Airport Elevation : 209 ft
- IATA code : CLY
- Download approach charts


LFKC - Calvi

CURRENT METAR :
  • 192000Z AUTO 17006KT CAVOK 15/07 Q1014 NOSIG

EXPIRED METARs :
  • 191930Z AUTO 18004KT 140V210 CAVOK 15/08 Q1013 NOSIG
  • 191900Z AUTO VRB03KT CAVOK 15/08 Q1013 NOSIG
  • 191830Z AUTO 17005KT CAVOK 16/09 Q1013 NOSIG
  • 191800Z AUTO 18004KT CAVOK 16/09 Q1013 NOSIG
  • 191730Z AUTO 16005KT CAVOK 17/10 Q1013 NOSIG

TAF TAF LFKC
Valid from the 19 at 15:00 until the 20 at 15:00 UTC


191400Z 1915/2015 34006KT CAVOK
BECMG 1917/1920 20006KT
BECMG 2009/2012 24008KT TX25/2013Z TN13/2004Z
ATIS : +33 4 95 65 82 49
No reported NOTAMs for that airfield.
1 SIGMET reported for the Marseille FIR (LFMM) :
 
Embedded thunderstorms
LFMM SIGMET 14 VALID 191900/192100 LFPW
LFMM MARSEILLE FIR/UIR EMBD TS OBS WI N3900 E00700 - N3900 E00430 - N4200 E00430 - N4215 E00230 - N4345 E00245 - N4345 E00300 - N4115 E00600 TOP FL370 STNR NC=



MET'MAP, your aeronautical weather chart ! - Copyright ORBIFLY December 2007 - Disclaimer

ORBIFLY MET'MAP TEAM :

Programming & Development : Alexandra Zaïnal
Concept & Development : Baudouin d'Aumeries
Co-Development & Prog : Marc-Olivier Méhu
Technical & hardware support : Manuel Goepfert

Contact : metmap@orbifly.com




SOURCES & CREDITS :

   NOAA